sensor_id;sensor_type;location;lat;lon;timestamp;P1;durP1;ratioP1;P2;durP2;ratioP2
14007;SDS011;61651;45.508;12.232;2023-04-25T00:00:22;3.22;;;2.70;;
14007;SDS011;61651;45.508;12.232;2023-04-25T00:03:23;2.97;;;2.67;;
14007;SDS011;61651;45.508;12.232;2023-04-25T00:06:26;3.38;;;3.08;;
14007;SDS011;61651;45.508;12.232;2023-04-25T00:09:28;3.28;;;2.80;;
14007;SDS011;61651;45.508;12.232;2023-04-25T00:12:30;3.95;;;3.10;;
14007;SDS011;61651;45.508;12.232;2023-04-25T00:15:35;3.70;;;2.95;;
14007;SDS011;61651;45.508;12.232;2023-04-25T00:18:38;3.00;;;2.80;;
14007;SDS011;61651;45.508;12.232;2023-04-25T00:21:40;2.65;;;2.45;;
14007;SDS011;61651;45.508;12.232;2023-04-25T00:24:42;3.05;;;2.65;;
14007;SDS011;61651;45.508;12.232;2023-04-25T00:27:44;3.10;;;2.53;;
14007;SDS011;61651;45.508;12.232;2023-04-25T00:30:48;3.75;;;2.50;;
14007;SDS011;61651;45.508;12.232;2023-04-25T00:33:50;3.08;;;2.75;;
14007;SDS011;61651;45.508;12.232;2023-04-25T00:36:53;2.55;;;2.35;;
14007;SDS011;61651;45.508;12.232;2023-04-25T00:39:56;2.85;;;2.60;;
14007;SDS011;61651;45.508;12.232;2023-04-25T00:42:58;3.35;;;2.50;;
14007;SDS011;61651;45.508;12.232;2023-04-25T00:46:02;2.47;;;2.28;;
14007;SDS011;61651;45.508;12.232;2023-04-25T00:49:04;2.60;;;2.40;;
14007;SDS011;61651;45.508;12.232;2023-04-25T00:52:06;2.65;;;2.45;;
14007;SDS011;61651;45.508;12.232;2023-04-25T00:55:08;3.67;;;2.42;;
14007;SDS011;61651;45.508;12.232;2023-04-25T00:58:10;2.72;;;2.53;;
14007;SDS011;61651;45.508;12.232;2023-04-25T01:01:14;4.13;;;2.58;;
14007;SDS011;61651;45.508;12.232;2023-04-25T01:04:16;4.15;;;2.85;;
14007;SDS011;61651;45.508;12.232;2023-04-25T01:07:18;2.45;;;2.25;;
14007;SDS011;61651;45.508;12.232;2023-04-25T01:10:21;3.00;;;2.80;;
14007;SDS011;61651;45.508;12.232;2023-04-25T01:13:22;3.60;;;3.22;;
14007;SDS011;61651;45.508;12.232;2023-04-25T01:16:26;2.78;;;2.58;;
14007;SDS011;61651;45.508;12.232;2023-04-25T01:19:28;2.72;;;2.50;;
14007;SDS011;61651;45.508;12.232;2023-04-25T01:22:32;3.38;;;2.65;;
14007;SDS011;61651;45.508;12.232;2023-04-25T01:25:35;2.83;;;2.53;;
14007;SDS011;61651;45.508;12.232;2023-04-25T01:28:37;2.72;;;2.53;;
14007;SDS011;61651;45.508;12.232;2023-04-25T01:31:41;2.50;;;2.30;;
14007;SDS011;61651;45.508;12.232;2023-04-25T01:34:43;3.03;;;2.72;;
14007;SDS011;61651;45.508;12.232;2023-04-25T01:37:47;3.67;;;3.13;;
14007;SDS011;61651;45.508;12.232;2023-04-25T01:40:49;3.15;;;2.83;;
14007;SDS011;61651;45.508;12.232;2023-04-25T01:43:52;3.08;;;2.80;;
14007;SDS011;61651;45.508;12.232;2023-04-25T01:46:54;2.65;;;2.45;;
14007;SDS011;61651;45.508;12.232;2023-04-25T01:49:56;3.35;;;2.40;;
14007;SDS011;61651;45.508;12.232;2023-04-25T01:53:00;2.90;;;2.60;;
14007;SDS011;61651;45.508;12.232;2023-04-25T01:56:02;3.58;;;2.88;;
14007;SDS011;61651;45.508;12.232;2023-04-25T01:59:05;2.92;;;2.72;;
14007;SDS011;61651;45.508;12.232;2023-04-25T02:02:07;3.08;;;2.45;;
14007;SDS011;61651;45.508;12.232;2023-04-25T02:05:09;3.22;;;3.00;;
14007;SDS011;61651;45.508;12.232;2023-04-25T02:08:13;3.17;;;2.90;;
14007;SDS011;61651;45.508;12.232;2023-04-25T02:11:15;3.28;;;2.97;;
14007;SDS011;61651;45.508;12.232;2023-04-25T02:14:16;4.35;;;2.90;;
14007;SDS011;61651;45.508;12.232;2023-04-25T02:17:18;3.47;;;3.17;;
14007;SDS011;61651;45.508;12.232;2023-04-25T02:20:21;3.42;;;3.10;;
14007;SDS011;61651;45.508;12.232;2023-04-25T02:23:25;3.47;;;3.17;;
14007;SDS011;61651;45.508;12.232;2023-04-25T02:26:27;3.75;;;3.45;;
14007;SDS011;61651;45.508;12.232;2023-04-25T02:29:30;6.00;;;4.10;;
14007;SDS011;61651;45.508;12.232;2023-04-25T02:32:32;4.78;;;4.35;;
14007;SDS011;61651;45.508;12.232;2023-04-25T02:35:34;4.53;;;4.13;;
14007;SDS011;61651;45.508;12.232;2023-04-25T02:38:37;4.28;;;3.85;;
14007;SDS011;61651;45.508;12.232;2023-04-25T02:41:39;5.03;;;4.30;;
14007;SDS011;61651;45.508;12.232;2023-04-25T02:44:41;4.13;;;3.67;;
14007;SDS011;61651;45.508;12.232;2023-04-25T02:47:43;4.32;;;3.85;;
14007;SDS011;61651;45.508;12.232;2023-04-25T02:50:45;4.63;;;4.18;;
14007;SDS011;61651;45.508;12.232;2023-04-25T02:53:48;3.95;;;3.55;;
14007;SDS011;61651;45.508;12.232;2023-04-25T02:56:50;4.25;;;3.85;;
14007;SDS011;61651;45.508;12.232;2023-04-25T02:59:52;4.00;;;3.67;;
14007;SDS011;61651;45.508;12.232;2023-04-25T03:02:54;5.03;;;3.90;;
14007;SDS011;61651;45.508;12.232;2023-04-25T03:05:56;4.75;;;4.30;;
14007;SDS011;61651;45.508;12.232;2023-04-25T03:09:00;5.95;;;3.90;;
14007;SDS011;61651;45.508;12.232;2023-04-25T03:12:02;4.50;;;3.85;;
14007;SDS011;61651;45.508;12.232;2023-04-25T03:15:04;4.22;;;3.83;;
14007;SDS011;61651;45.508;12.232;2023-04-25T03:18:07;4.80;;;3.55;;
14007;SDS011;61651;45.508;12.232;2023-04-25T03:21:09;4.18;;;3.83;;
14007;SDS011;61651;45.508;12.232;2023-04-25T03:24:12;4.50;;;3.75;;
14007;SDS011;61651;45.508;12.232;2023-04-25T03:27:14;4.63;;;4.22;;
14007;SDS011;61651;45.508;12.232;2023-04-25T03:30:16;4.40;;;4.00;;
14007;SDS011;61651;45.508;12.232;2023-04-25T03:33:18;4.45;;;4.07;;
14007;SDS011;61651;45.508;12.232;2023-04-25T03:36:20;4.50;;;4.10;;
14007;SDS011;61651;45.508;12.232;2023-04-25T03:39:23;5.03;;;4.55;;
14007;SDS011;61651;45.508;12.232;2023-04-25T03:42:25;5.07;;;4.57;;
14007;SDS011;61651;45.508;12.232;2023-04-25T03:45:27;4.82;;;4.38;;
14007;SDS011;61651;45.508;12.232;2023-04-25T03:48:29;5.57;;;5.00;;
14007;SDS011;61651;45.508;12.232;2023-04-25T03:51:31;5.05;;;4.55;;
14007;SDS011;61651;45.508;12.232;2023-04-25T03:54:34;5.53;;;4.85;;
14007;SDS011;61651;45.508;12.232;2023-04-25T03:57:36;6.55;;;5.20;;
14007;SDS011;61651;45.508;12.232;2023-04-25T04:00:38;5.35;;;4.50;;
14007;SDS011;61651;45.508;12.232;2023-04-25T04:03:40;5.82;;;4.78;;
14007;SDS011;61651;45.508;12.232;2023-04-25T04:06:42;4.75;;;4.25;;
14007;SDS011;61651;45.508;12.232;2023-04-25T04:09:45;5.38;;;4.90;;
14007;SDS011;61651;45.508;12.232;2023-04-25T04:12:47;5.72;;;4.82;;
14007;SDS011;61651;45.508;12.232;2023-04-25T04:15:49;5.00;;;4.57;;
14007;SDS011;61651;45.508;12.232;2023-04-25T04:18:51;4.93;;;4.43;;
14007;SDS011;61651;45.508;12.232;2023-04-25T04:21:53;4.32;;;3.92;;
14007;SDS011;61651;45.508;12.232;2023-04-25T04:24:57;4.55;;;4.10;;
14007;SDS011;61651;45.508;12.232;2023-04-25T04:27:58;3.67;;;3.35;;
14007;SDS011;61651;45.508;12.232;2023-04-25T04:31:01;4.97;;;4.40;;
14007;SDS011;61651;45.508;12.232;2023-04-25T04:34:03;3.85;;;3.55;;
14007;SDS011;61651;45.508;12.232;2023-04-25T04:37:06;5.88;;;4.68;;
14007;SDS011;61651;45.508;12.232;2023-04-25T04:40:10;4.72;;;4.22;;
14007;SDS011;61651;45.508;12.232;2023-04-25T04:43:12;5.45;;;4.95;;
14007;SDS011;61651;45.508;12.232;2023-04-25T04:46:17;6.30;;;5.63;;
14007;SDS011;61651;45.508;12.232;2023-04-25T04:49:19;6.57;;;5.97;;
14007;SDS011;61651;45.508;12.232;2023-04-25T04:52:22;8.23;;;5.38;;
14007;SDS011;61651;45.508;12.232;2023-04-25T04:55:26;6.80;;;6.10;;
14007;SDS011;61651;45.508;12.232;2023-04-25T04:58:28;6.68;;;5.88;;
14007;SDS011;61651;45.508;12.232;2023-04-25T05:01:30;7.38;;;6.55;;
14007;SDS011;61651;45.508;12.232;2023-04-25T05:04:32;6.90;;;6.15;;
14007;SDS011;61651;45.508;12.232;2023-04-25T05:07:34;6.15;;;5.50;;
14007;SDS011;61651;45.508;12.232;2023-04-25T05:10:38;7.22;;;6.53;;
14007;SDS011;61651;45.508;12.232;2023-04-25T05:13:40;7.30;;;6.60;;
14007;SDS011;61651;45.508;12.232;2023-04-25T05:16:42;7.22;;;6.15;;
14007;SDS011;61651;45.508;12.232;2023-04-25T05:19:44;6.07;;;5.47;;
14007;SDS011;61651;45.508;12.232;2023-04-25T05:22:46;6.13;;;5.53;;
14007;SDS011;61651;45.508;12.232;2023-04-25T05:25:49;7.00;;;5.88;;
14007;SDS011;61651;45.508;12.232;2023-04-25T05:28:51;6.82;;;6.22;;
14007;SDS011;61651;45.508;12.232;2023-04-25T05:31:53;6.22;;;5.60;;
14007;SDS011;61651;45.508;12.232;2023-04-25T05:34:55;7.82;;;5.90;;
14007;SDS011;61651;45.508;12.232;2023-04-25T05:37:57;7.10;;;6.20;;
14007;SDS011;61651;45.508;12.232;2023-04-25T05:41:00;6.70;;;6.07;;
14007;SDS011;61651;45.508;12.232;2023-04-25T05:44:02;6.43;;;5.82;;
14007;SDS011;61651;45.508;12.232;2023-04-25T05:47:04;6.47;;;5.88;;
14007;SDS011;61651;45.508;12.232;2023-04-25T05:50:07;7.90;;;5.80;;
14007;SDS011;61651;45.508;12.232;2023-04-25T05:53:09;5.95;;;5.35;;
14007;SDS011;61651;45.508;12.232;2023-04-25T05:56:13;6.30;;;5.40;;
14007;SDS011;61651;45.508;12.232;2023-04-25T05:59:15;5.65;;;5.07;;
14007;SDS011;61651;45.508;12.232;2023-04-25T06:02:18;5.80;;;5.22;;
14007;SDS011;61651;45.508;12.232;2023-04-25T06:05:20;6.07;;;5.43;;
14007;SDS011;61651;45.508;12.232;2023-04-25T06:08:22;6.57;;;4.90;;
14007;SDS011;61651;45.508;12.232;2023-04-25T06:11:26;7.32;;;5.47;;
14007;SDS011;61651;45.508;12.232;2023-04-25T06:14:28;9.27;;;6.20;;
14007;SDS011;61651;45.508;12.232;2023-04-25T06:17:30;6.25;;;5.65;;
14007;SDS011;61651;45.508;12.232;2023-04-25T06:20:32;6.45;;;5.75;;
14007;SDS011;61651;45.508;12.232;2023-04-25T06:23:34;6.60;;;4.85;;
14007;SDS011;61651;45.508;12.232;2023-04-25T06:26:37;5.72;;;5.20;;
14007;SDS011;61651;45.508;12.232;2023-04-25T06:29:39;5.65;;;4.88;;
14007;SDS011;61651;45.508;12.232;2023-04-25T06:32:41;7.20;;;5.07;;
14007;SDS011;61651;45.508;12.232;2023-04-25T06:35:43;6.68;;;5.47;;
14007;SDS011;61651;45.508;12.232;2023-04-25T06:38:45;5.55;;;5.00;;
14007;SDS011;61651;45.508;12.232;2023-04-25T06:41:49;5.53;;;4.43;;
14007;SDS011;61651;45.508;12.232;2023-04-25T06:44:50;5.95;;;4.75;;
14007;SDS011;61651;45.508;12.232;2023-04-25T06:47:52;6.05;;;3.95;;
14007;SDS011;61651;45.508;12.232;2023-04-25T06:50:54;4.63;;;3.92;;
14007;SDS011;61651;45.508;12.232;2023-04-25T06:53:56;4.70;;;4.25;;
14007;SDS011;61651;45.508;12.232;2023-04-25T06:57:00;4.40;;;4.00;;
14007;SDS011;61651;45.508;12.232;2023-04-25T07:00:03;3.80;;;3.50;;
14007;SDS011;61651;45.508;12.232;2023-04-25T07:03:09;5.13;;;3.63;;
14007;SDS011;61651;45.508;12.232;2023-04-25T07:06:11;4.95;;;4.35;;
14007;SDS011;61651;45.508;12.232;2023-04-25T07:09:12;6.07;;;4.68;;
14007;SDS011;61651;45.508;12.232;2023-04-25T07:12:16;4.50;;;4.10;;
14007;SDS011;61651;45.508;12.232;2023-04-25T07:15:18;4.90;;;4.40;;
14007;SDS011;61651;45.508;12.232;2023-04-25T07:18:20;4.50;;;4.10;;
14007;SDS011;61651;45.508;12.232;2023-04-25T07:21:22;5.97;;;4.85;;
14007;SDS011;61651;45.508;12.232;2023-04-25T07:24:24;5.00;;;4.60;;
14007;SDS011;61651;45.508;12.232;2023-04-25T07:27:27;6.35;;;5.75;;
14007;SDS011;61651;45.508;12.232;2023-04-25T07:30:29;5.72;;;5.20;;
14007;SDS011;61651;45.508;12.232;2023-04-25T07:33:31;5.60;;;5.03;;
14007;SDS011;61651;45.508;12.232;2023-04-25T07:36:33;6.82;;;6.13;;
14007;SDS011;61651;45.508;12.232;2023-04-25T07:39:35;6.40;;;5.80;;
14007;SDS011;61651;45.508;12.232;2023-04-25T07:42:38;7.20;;;6.20;;
14007;SDS011;61651;45.508;12.232;2023-04-25T07:45:40;7.18;;;6.57;;
14007;SDS011;61651;45.508;12.232;2023-04-25T07:48:42;6.38;;;5.82;;
14007;SDS011;61651;45.508;12.232;2023-04-25T07:51:44;6.38;;;5.50;;
14007;SDS011;61651;45.508;12.232;2023-04-25T07:54:47;7.57;;;6.03;;
14007;SDS011;61651;45.508;12.232;2023-04-25T07:57:50;6.25;;;5.65;;
14007;SDS011;61651;45.508;12.232;2023-04-25T08:00:52;6.18;;;5.57;;
14007;SDS011;61651;45.508;12.232;2023-04-25T08:03:54;6.60;;;5.45;;
14007;SDS011;61651;45.508;12.232;2023-04-25T08:06:56;7.65;;;6.40;;
14007;SDS011;61651;45.508;12.232;2023-04-25T08:09:58;5.75;;;5.07;;
14007;SDS011;61651;45.508;12.232;2023-04-25T08:13:01;6.32;;;5.30;;
14007;SDS011;61651;45.508;12.232;2023-04-25T08:16:03;6.28;;;5.50;;
14007;SDS011;61651;45.508;12.232;2023-04-25T08:19:05;8.77;;;5.40;;
14007;SDS011;61651;45.508;12.232;2023-04-25T08:22:07;7.18;;;5.55;;
14007;SDS011;61651;45.508;12.232;2023-04-25T08:25:09;6.90;;;6.15;;
14007;SDS011;61651;45.508;12.232;2023-04-25T08:28:13;6.60;;;5.60;;
14007;SDS011;61651;45.508;12.232;2023-04-25T08:31:16;8.32;;;5.25;;
14007;SDS011;61651;45.508;12.232;2023-04-25T08:34:18;6.38;;;5.78;;
14007;SDS011;61651;45.508;12.232;2023-04-25T08:37:20;6.15;;;5.57;;
14007;SDS011;61651;45.508;12.232;2023-04-25T08:40:22;6.50;;;5.90;;
14007;SDS011;61651;45.508;12.232;2023-04-25T08:43:30;6.70;;;5.55;;
14007;SDS011;61651;45.508;12.232;2023-04-25T08:46:32;6.15;;;5.55;;
14007;SDS011;61651;45.508;12.232;2023-04-25T08:49:34;6.68;;;5.68;;
14007;SDS011;61651;45.508;12.232;2023-04-25T08:52:38;8.70;;;6.50;;
14007;SDS011;61651;45.508;12.232;2023-04-25T08:55:45;6.93;;;6.05;;
14007;SDS011;61651;45.508;12.232;2023-04-25T08:58:49;7.18;;;5.82;;
14007;SDS011;61651;45.508;12.232;2023-04-25T09:01:51;6.50;;;5.88;;
14007;SDS011;61651;45.508;12.232;2023-04-25T09:04:53;6.85;;;6.15;;
14007;SDS011;61651;45.508;12.232;2023-04-25T09:07:56;7.60;;;6.38;;
14007;SDS011;61651;45.508;12.232;2023-04-25T09:10:58;9.63;;;6.53;;
14007;SDS011;61651;45.508;12.232;2023-04-25T09:14:14;8.82;;;6.40;;
14007;SDS011;61651;45.508;12.232;2023-04-25T09:17:17;6.43;;;5.82;;
14007;SDS011;61651;45.508;12.232;2023-04-25T09:20:20;7.72;;;6.57;;
14007;SDS011;61651;45.508;12.232;2023-04-25T09:23:22;7.10;;;6.40;;
14007;SDS011;61651;45.508;12.232;2023-04-25T09:26:24;6.95;;;6.30;;
14007;SDS011;61651;45.508;12.232;2023-04-25T09:29:32;7.57;;;6.75;;
14007;SDS011;61651;45.508;12.232;2023-04-25T09:32:35;6.55;;;5.28;;
14007;SDS011;61651;45.508;12.232;2023-04-25T09:35:37;5.05;;;4.55;;
14007;SDS011;61651;45.508;12.232;2023-04-25T09:38:40;4.75;;;4.35;;
14007;SDS011;61651;45.508;12.232;2023-04-25T09:41:43;4.72;;;4.25;;
14007;SDS011;61651;45.508;12.232;2023-04-25T09:44:47;3.15;;;2.80;;
14007;SDS011;61651;45.508;12.232;2023-04-25T09:47:49;3.28;;;1.95;;
14007;SDS011;61651;45.508;12.232;2023-04-25T09:51:03;3.88;;;2.20;;
14007;SDS011;61651;45.508;12.232;2023-04-25T09:54:06;3.38;;;2.30;;
14007;SDS011;61651;45.508;12.232;2023-04-25T09:57:10;3.08;;;2.35;;
14007;SDS011;61651;45.508;12.232;2023-04-25T10:00:14;4.20;;;2.78;;
14007;SDS011;61651;45.508;12.232;2023-04-25T10:03:17;5.07;;;2.10;;
14007;SDS011;61651;45.508;12.232;2023-04-25T10:06:21;4.55;;;1.90;;
14007;SDS011;61651;45.508;12.232;2023-04-25T10:09:25;1.63;;;1.48;;
14007;SDS011;61651;45.508;12.232;2023-04-25T10:12:32;1.70;;;1.60;;
14007;SDS011;61651;45.508;12.232;2023-04-25T10:15:36;5.88;;;2.03;;
14007;SDS011;61651;45.508;12.232;2023-04-25T10:18:38;2.85;;;1.73;;
14007;SDS011;61651;45.508;12.232;2023-04-25T10:21:44;5.63;;;1.45;;
14007;SDS011;61651;45.508;12.232;2023-04-25T10:24:51;2.35;;;1.40;;
14007;SDS011;61651;45.508;12.232;2023-04-25T10:27:53;2.35;;;1.30;;
14007;SDS011;61651;45.508;12.232;2023-04-25T10:31:00;3.67;;;1.85;;
14007;SDS011;61651;45.508;12.232;2023-04-25T10:34:03;1.08;;;1.05;;
14007;SDS011;61651;45.508;12.232;2023-04-25T10:37:08;1.17;;;1.15;;
14007;SDS011;61651;45.508;12.232;2023-04-25T10:40:11;2.47;;;1.48;;
14007;SDS011;61651;45.508;12.232;2023-04-25T10:43:33;1.88;;;1.42;;
14007;SDS011;61651;45.508;12.232;2023-04-25T10:46:38;2.40;;;1.40;;
14007;SDS011;61651;45.508;12.232;2023-04-25T10:49:41;3.42;;;1.35;;
14007;SDS011;61651;45.508;12.232;2023-04-25T10:52:44;4.90;;;1.58;;
14007;SDS011;61651;45.508;12.232;2023-04-25T10:55:49;2.53;;;1.38;;
14007;SDS011;61651;45.508;12.232;2023-04-25T10:58:51;2.70;;;1.52;;
14007;SDS011;61651;45.508;12.232;2023-04-25T11:02:11;2.05;;;1.30;;
14007;SDS011;61651;45.508;12.232;2023-04-25T11:05:20;2.13;;;1.10;;
14007;SDS011;61651;45.508;12.232;2023-04-25T11:08:28;2.05;;;1.15;;
14007;SDS011;61651;45.508;12.232;2023-04-25T11:11:39;1.35;;;0.82;;
14007;SDS011;61651;45.508;12.232;2023-04-25T11:14:41;2.83;;;1.10;;
14007;SDS011;61651;45.508;12.232;2023-04-25T11:17:45;1.17;;;0.95;;
14007;SDS011;61651;45.508;12.232;2023-04-25T11:20:47;1.10;;;1.00;;
14007;SDS011;61651;45.508;12.232;2023-04-25T11:23:50;1.40;;;1.30;;
14007;SDS011;61651;45.508;12.232;2023-04-25T11:26:53;1.70;;;1.10;;
14007;SDS011;61651;45.508;12.232;2023-04-25T11:29:55;1.02;;;1.00;;
14007;SDS011;61651;45.508;12.232;2023-04-25T11:32:58;2.63;;;1.20;;
14007;SDS011;61651;45.508;12.232;2023-04-25T11:36:03;1.85;;;1.27;;
14007;SDS011;61651;45.508;12.232;2023-04-25T11:39:05;2.17;;;1.30;;
14007;SDS011;61651;45.508;12.232;2023-04-25T11:42:08;1.10;;;1.00;;
14007;SDS011;61651;45.508;12.232;2023-04-25T11:45:10;1.20;;;1.10;;
14007;SDS011;61651;45.508;12.232;2023-04-25T11:48:14;2.50;;;1.70;;
14007;SDS011;61651;45.508;12.232;2023-04-25T11:51:16;1.45;;;1.35;;
14007;SDS011;61651;45.508;12.232;2023-04-25T11:54:18;1.83;;;1.55;;
14007;SDS011;61651;45.508;12.232;2023-04-25T11:57:20;2.30;;;1.30;;
14007;SDS011;61651;45.508;12.232;2023-04-25T12:00:23;1.30;;;1.20;;
14007;SDS011;61651;45.508;12.232;2023-04-25T12:03:29;1.90;;;0.93;;
14007;SDS011;61651;45.508;12.232;2023-04-25T12:06:33;1.13;;;1.10;;
14007;SDS011;61651;45.508;12.232;2023-04-25T12:09:40;1.60;;;1.30;;
14007;SDS011;61651;45.508;12.232;2023-04-25T12:12:42;2.25;;;1.27;;
14007;SDS011;61651;45.508;12.232;2023-04-25T12:15:45;1.10;;;1.10;;
14007;SDS011;61651;45.508;12.232;2023-04-25T12:18:48;1.85;;;1.10;;
14007;SDS011;61651;45.508;12.232;2023-04-25T12:21:53;1.13;;;1.02;;
14007;SDS011;61651;45.508;12.232;2023-04-25T12:24:55;1.88;;;1.17;;
14007;SDS011;61651;45.508;12.232;2023-04-25T12:28:08;1.58;;;0.98;;
14007;SDS011;61651;45.508;12.232;2023-04-25T12:31:11;2.83;;;1.20;;
14007;SDS011;61651;45.508;12.232;2023-04-25T12:34:16;1.95;;;1.23;;
14007;SDS011;61651;45.508;12.232;2023-04-25T12:37:21;1.20;;;1.10;;
14007;SDS011;61651;45.508;12.232;2023-04-25T12:40:23;1.95;;;1.00;;
14007;SDS011;61651;45.508;12.232;2023-04-25T12:43:25;1.88;;;1.20;;
14007;SDS011;61651;45.508;12.232;2023-04-25T12:46:27;3.30;;;1.00;;
14007;SDS011;61651;45.508;12.232;2023-04-25T12:49:31;1.40;;;1.08;;
14007;SDS011;61651;45.508;12.232;2023-04-25T12:52:33;2.17;;;1.05;;
14007;SDS011;61651;45.508;12.232;2023-04-25T12:55:35;2.33;;;1.30;;
14007;SDS011;61651;45.508;12.232;2023-04-25T12:58:36;4.90;;;1.58;;
14007;SDS011;61651;45.508;12.232;2023-04-25T13:01:38;1.05;;;1.00;;
14007;SDS011;61651;45.508;12.232;2023-04-25T13:04:42;0.90;;;0.90;;
14007;SDS011;61651;45.508;12.232;2023-04-25T13:07:44;1.15;;;1.05;;
14007;SDS011;61651;45.508;12.232;2023-04-25T13:10:45;0.95;;;0.95;;
14007;SDS011;61651;45.508;12.232;2023-04-25T13:13:48;1.55;;;0.95;;
14007;SDS011;61651;45.508;12.232;2023-04-25T13:16:50;1.10;;;1.00;;
14007;SDS011;61651;45.508;12.232;2023-04-25T13:19:54;1.10;;;0.98;;
14007;SDS011;61651;45.508;12.232;2023-04-25T13:22:56;1.15;;;1.05;;
14007;SDS011;61651;45.508;12.232;2023-04-25T13:25:58;1.00;;;1.00;;
14007;SDS011;61651;45.508;12.232;2023-04-25T13:29:01;1.42;;;1.08;;
14007;SDS011;61651;45.508;12.232;2023-04-25T13:32:04;1.05;;;1.00;;
14007;SDS011;61651;45.508;12.232;2023-04-25T13:35:08;1.35;;;1.10;;
14007;SDS011;61651;45.508;12.232;2023-04-25T13:38:11;1.27;;;1.17;;
14007;SDS011;61651;45.508;12.232;2023-04-25T13:41:13;1.42;;;1.20;;
14007;SDS011;61651;45.508;12.232;2023-04-25T13:44:18;1.20;;;1.10;;
14007;SDS011;61651;45.508;12.232;2023-04-25T13:47:20;1.40;;;1.30;;
14007;SDS011;61651;45.508;12.232;2023-04-25T13:50:24;1.55;;;1.30;;
14007;SDS011;61651;45.508;12.232;2023-04-25T13:53:26;1.25;;;1.10;;
14007;SDS011;61651;45.508;12.232;2023-04-25T13:56:28;1.30;;;1.20;;
14007;SDS011;61651;45.508;12.232;2023-04-25T13:59:30;1.15;;;1.10;;
14007;SDS011;61651;45.508;12.232;2023-04-25T14:02:32;1.20;;;1.10;;
14007;SDS011;61651;45.508;12.232;2023-04-25T14:05:36;1.33;;;1.23;;
14007;SDS011;61651;45.508;12.232;2023-04-25T14:08:39;1.50;;;1.30;;
14007;SDS011;61651;45.508;12.232;2023-04-25T14:11:41;1.33;;;1.23;;
14007;SDS011;61651;45.508;12.232;2023-04-25T14:14:42;1.33;;;1.23;;
14007;SDS011;61651;45.508;12.232;2023-04-25T14:17:44;0.95;;;0.93;;
14007;SDS011;61651;45.508;12.232;2023-04-25T14:20:50;1.58;;;1.30;;
14007;SDS011;61651;45.508;12.232;2023-04-25T14:24:02;1.30;;;1.17;;
14007;SDS011;61651;45.508;12.232;2023-04-25T14:27:06;5.80;;;2.65;;
14007;SDS011;61651;45.508;12.232;2023-04-25T14:30:09;1.42;;;1.33;;
14007;SDS011;61651;45.508;12.232;2023-04-25T14:33:12;1.20;;;1.10;;
14007;SDS011;61651;45.508;12.232;2023-04-25T14:36:13;1.50;;;1.40;;
14007;SDS011;61651;45.508;12.232;2023-04-25T14:39:17;1.48;;;1.23;;
14007;SDS011;61651;45.508;12.232;2023-04-25T14:42:19;2.85;;;1.50;;
14007;SDS011;61651;45.508;12.232;2023-04-25T14:45:21;2.13;;;1.50;;
14007;SDS011;61651;45.508;12.232;2023-04-25T14:48:23;1.63;;;1.30;;
14007;SDS011;61651;45.508;12.232;2023-04-25T14:51:25;1.80;;;1.30;;
14007;SDS011;61651;45.508;12.232;2023-04-25T14:54:28;1.20;;;1.20;;
14007;SDS011;61651;45.508;12.232;2023-04-25T14:57:31;1.27;;;1.17;;
14007;SDS011;61651;45.508;12.232;2023-04-25T15:00:33;1.40;;;1.30;;
14007;SDS011;61651;45.508;12.232;2023-04-25T15:03:35;1.38;;;1.25;;
14007;SDS011;61651;45.508;12.232;2023-04-25T15:06:37;1.60;;;1.50;;
14007;SDS011;61651;45.508;12.232;2023-04-25T15:09:40;1.58;;;1.23;;
14007;SDS011;61651;45.508;12.232;2023-04-25T15:12:42;2.45;;;1.20;;
14007;SDS011;61651;45.508;12.232;2023-04-25T15:15:44;1.42;;;1.33;;
14007;SDS011;61651;45.508;12.232;2023-04-25T15:18:51;1.20;;;1.10;;
14007;SDS011;61651;45.508;12.232;2023-04-25T15:21:52;1.02;;;1.02;;
14007;SDS011;61651;45.508;12.232;2023-04-25T15:24:56;1.17;;;1.10;;
14007;SDS011;61651;45.508;12.232;2023-04-25T15:27:58;1.65;;;1.40;;
14007;SDS011;61651;45.508;12.232;2023-04-25T15:31:00;2.05;;;1.40;;
14007;SDS011;61651;45.508;12.232;2023-04-25T15:34:02;2.03;;;1.40;;
14007;SDS011;61651;45.508;12.232;2023-04-25T15:37:05;1.50;;;1.40;;
14007;SDS011;61651;45.508;12.232;2023-04-25T15:40:09;1.65;;;1.33;;
14007;SDS011;61651;45.508;12.232;2023-04-25T15:43:13;1.27;;;1.27;;
14007;SDS011;61651;45.508;12.232;2023-04-25T15:46:16;1.35;;;1.10;;
14007;SDS011;61651;45.508;12.232;2023-04-25T15:49:18;1.33;;;1.23;;
14007;SDS011;61651;45.508;12.232;2023-04-25T15:52:20;1.48;;;1.38;;
14007;SDS011;61651;45.508;12.232;2023-04-25T15:55:24;1.20;;;1.20;;
14007;SDS011;61651;45.508;12.232;2023-04-25T15:58:26;1.58;;;1.20;;
14007;SDS011;61651;45.508;12.232;2023-04-25T16:01:28;1.33;;;1.23;;
14007;SDS011;61651;45.508;12.232;2023-04-25T16:04:31;1.20;;;1.10;;
14007;SDS011;61651;45.508;12.232;2023-04-25T16:07:34;1.25;;;1.17;;
14007;SDS011;61651;45.508;12.232;2023-04-25T16:10:37;1.98;;;1.35;;
14007;SDS011;61651;45.508;12.232;2023-04-25T16:13:39;1.63;;;1.52;;
14007;SDS011;61651;45.508;12.232;2023-04-25T16:16:41;1.70;;;1.60;;
14007;SDS011;61651;45.508;12.232;2023-04-25T16:19:44;1.02;;;1.02;;
14007;SDS011;61651;45.508;12.232;2023-04-25T16:22:46;1.20;;;1.20;;
14007;SDS011;61651;45.508;12.232;2023-04-25T16:25:49;1.88;;;1.20;;
14007;SDS011;61651;45.508;12.232;2023-04-25T16:28:51;2.00;;;1.27;;
14007;SDS011;61651;45.508;12.232;2023-04-25T16:31:53;1.45;;;1.25;;
14007;SDS011;61651;45.508;12.232;2023-04-25T16:34:55;1.50;;;1.40;;
14007;SDS011;61651;45.508;12.232;2023-04-25T16:37:57;1.27;;;1.23;;
14007;SDS011;61651;45.508;12.232;2023-04-25T16:41:01;1.50;;;1.30;;
14007;SDS011;61651;45.508;12.232;2023-04-25T16:44:03;1.38;;;1.27;;
14007;SDS011;61651;45.508;12.232;2023-04-25T16:47:05;1.55;;;1.45;;
14007;SDS011;61651;45.508;12.232;2023-04-25T16:50:08;1.35;;;1.25;;
14007;SDS011;61651;45.508;12.232;2023-04-25T16:53:10;1.50;;;1.40;;
14007;SDS011;61651;45.508;12.232;2023-04-25T16:56:13;1.85;;;1.45;;
14007;SDS011;61651;45.508;12.232;2023-04-25T16:59:16;1.17;;;1.17;;
14007;SDS011;61651;45.508;12.232;2023-04-25T17:02:18;1.48;;;1.30;;
14007;SDS011;61651;45.508;12.232;2023-04-25T17:05:20;1.65;;;1.55;;
14007;SDS011;61651;45.508;12.232;2023-04-25T17:08:22;3.22;;;2.92;;
14007;SDS011;61651;45.508;12.232;2023-04-25T17:11:25;2.97;;;2.63;;
14007;SDS011;61651;45.508;12.232;2023-04-25T17:14:27;2.58;;;1.70;;
14007;SDS011;61651;45.508;12.232;2023-04-25T17:17:29;1.70;;;1.60;;
14007;SDS011;61651;45.508;12.232;2023-04-25T17:20:31;1.42;;;1.33;;
14007;SDS011;61651;45.508;12.232;2023-04-25T17:23:33;1.30;;;1.20;;
14007;SDS011;61651;45.508;12.232;2023-04-25T17:26:36;3.25;;;2.97;;
14007;SDS011;61651;45.508;12.232;2023-04-25T17:29:38;2.42;;;2.20;;
14007;SDS011;61651;45.508;12.232;2023-04-25T17:32:40;2.30;;;2.10;;
14007;SDS011;61651;45.508;12.232;2023-04-25T17:35:42;1.77;;;1.67;;
14007;SDS011;61651;45.508;12.232;2023-04-25T17:38:45;1.83;;;1.67;;
14007;SDS011;61651;45.508;12.232;2023-04-25T17:41:48;2.47;;;1.85;;
14007;SDS011;61651;45.508;12.232;2023-04-25T17:44:50;1.70;;;1.60;;
14007;SDS011;61651;45.508;12.232;2023-04-25T17:47:54;1.80;;;1.70;;
14007;SDS011;61651;45.508;12.232;2023-04-25T17:50:56;3.50;;;1.40;;
14007;SDS011;61651;45.508;12.232;2023-04-25T17:53:58;1.95;;;1.73;;
14007;SDS011;61651;45.508;12.232;2023-04-25T17:57:01;2.03;;;1.55;;
14007;SDS011;61651;45.508;12.232;2023-04-25T18:00:05;3.03;;;1.83;;
14007;SDS011;61651;45.508;12.232;2023-04-25T18:03:08;4.97;;;3.53;;